createdAt,value
2019-02-28T00:02:22.488Z,53.90
2019-02-28T00:04:49.744Z,54.40
2019-02-28T00:07:18.699Z,54.20
2019-02-28T00:09:47.491Z,54.20
2019-02-28T00:12:16.287Z,54.30
2019-02-28T00:14:45.621Z,55.10
2019-02-28T00:17:16.555Z,55.80
2019-02-28T00:19:45.300Z,55.70
2019-02-28T00:22:16.260Z,56.00
2019-02-28T00:24:45.121Z,55.70
2019-02-28T00:27:21.000Z,56.80
2019-02-28T00:29:48.691Z,55.60
2019-02-28T00:32:17.626Z,56.30
2019-02-28T00:34:47.913Z,56.30
2019-02-28T00:37:17.255Z,56.50
2019-02-28T00:39:46.304Z,56.80
2019-02-28T00:42:17.307Z,57.80
2019-02-28T00:44:45.656Z,57.80
2019-02-28T00:47:16.493Z,57.00
2019-02-28T00:49:46.354Z,56.50
2019-02-28T00:52:15.226Z,56.40
2019-02-28T00:54:44.532Z,56.20
2019-02-28T00:57:13.398Z,56.60
2019-02-28T00:59:43.123Z,55.90
2019-02-28T01:02:13.834Z,56.50
2019-02-28T01:04:42.724Z,56.00
2019-02-28T01:07:16.250Z,55.40
2019-02-28T01:09:45.024Z,54.60
2019-02-28T01:12:18.770Z,54.90
2019-02-28T01:14:47.146Z,55.90
2019-02-28T01:17:16.181Z,57.10
2019-02-28T01:19:45.073Z,58.80
2019-02-28T01:22:13.974Z,59.70
2019-02-28T01:24:42.817Z,60.40
2019-02-28T01:27:11.771Z,60.70
2019-02-28T01:29:40.804Z,60.90
2019-02-28T01:32:09.560Z,61.10
2019-02-28T01:34:38.442Z,63.00
2019-02-28T01:37:09.250Z,64.30
2019-02-28T01:39:38.129Z,63.40
2019-02-28T01:42:07.058Z,62.90
2019-02-28T01:44:36.535Z,61.70
2019-02-28T01:47:07.542Z,59.50
2019-02-28T01:49:36.189Z,58.50
2019-02-28T01:52:09.651Z,57.00
2019-02-28T01:54:36.541Z,58.10
2019-02-28T01:57:05.422Z,57.20
2019-02-28T01:59:36.055Z,56.40
2019-02-28T02:02:07.017Z,55.30
2019-02-28T02:04:35.482Z,55.60
2019-02-28T02:07:04.375Z,55.90
2019-02-28T02:09:34.140Z,55.80
2019-02-28T02:12:03.392Z,55.50
2019-02-28T02:14:33.204Z,55.30
2019-02-28T02:17:02.142Z,55.10
2019-02-28T02:19:34.061Z,54.80
2019-02-28T02:22:03.019Z,53.80
2019-02-28T02:24:31.899Z,54.20
2019-02-28T02:27:00.786Z,54.10
2019-02-28T02:29:32.435Z,56.00
2019-02-28T02:32:02.372Z,57.30
2019-02-28T02:34:31.487Z,57.20
2019-02-28T02:37:00.304Z,58.00
2019-02-28T02:39:29.720Z,57.20
2019-02-28T02:41:58.884Z,56.90
2019-02-28T02:44:31.815Z,56.70
2019-02-28T02:46:58.471Z,57.10
2019-02-28T02:49:27.617Z,56.30
2019-02-28T02:51:56.478Z,55.80
2019-02-28T02:54:25.391Z,55.90
2019-02-28T02:56:54.137Z,55.70
2019-02-28T02:59:22.915Z,55.40
2019-02-28T03:01:56.220Z,54.90
2019-02-28T03:04:23.485Z,54.00
2019-02-28T03:06:52.427Z,54.60
2019-02-28T03:09:21.320Z,54.30
2019-02-28T03:11:50.236Z,55.60
2019-02-28T03:14:19.128Z,56.10
2019-02-28T03:16:48.062Z,56.40
2019-02-28T03:19:17.213Z,56.80
2019-02-28T03:21:51.371Z,56.40
2019-02-28T03:24:17.480Z,56.20
2019-02-28T03:26:48.153Z,57.30
2019-02-28T03:29:16.987Z,59.30
2019-02-28T03:31:55.026Z,60.30
2019-02-28T03:34:16.568Z,61.40
2019-02-28T03:36:55.386Z,61.00
2019-02-28T03:39:16.889Z,60.70
2019-02-28T03:41:49.115Z,60.60
2019-02-28T03:44:21.326Z,59.00
2019-02-28T03:46:47.925Z,59.10
2019-02-28T03:49:17.880Z,59.80
2019-02-28T03:51:47.103Z,59.80
2019-02-28T03:54:15.917Z,58.60
2019-02-28T03:56:51.024Z,58.00
2019-02-28T03:59:18.829Z,59.10
2019-02-28T04:01:48.382Z,60.40
2019-02-28T04:04:18.921Z,60.00
2019-02-28T04:06:47.811Z,59.30
2019-02-28T04:09:18.059Z,58.30
2019-02-28T04:11:46.886Z,57.30
2019-02-28T04:14:15.732Z,57.00
2019-02-28T04:16:44.663Z,57.50
2019-02-28T04:19:21.241Z,57.50
2019-02-28T04:21:46.823Z,58.10
2019-02-28T04:24:16.774Z,59.90
2019-02-28T04:26:45.624Z,61.80
2019-02-28T04:29:15.307Z,62.20
2019-02-28T04:31:44.216Z,60.40
2019-02-28T04:34:14.331Z,59.80
2019-02-28T04:36:43.359Z,58.80
2019-02-28T04:39:13.866Z,58.10
2019-02-28T04:41:42.753Z,57.50
2019-02-28T04:44:11.635Z,58.30
2019-02-28T04:46:40.498Z,59.60
2019-02-28T04:49:09.445Z,59.40
2019-02-28T04:51:40.201Z,58.40
2019-02-28T04:54:08.928Z,57.70
2019-02-28T04:56:37.705Z,59.00
2019-02-28T04:59:06.744Z,59.20
2019-02-28T05:01:35.594Z,57.90
2019-02-28T05:04:05.777Z,58.10
2019-02-28T05:06:34.632Z,57.90
2019-02-28T05:09:05.035Z,58.50
2019-02-28T05:11:34.728Z,58.70
2019-02-28T05:14:03.591Z,58.30
2019-02-28T05:16:32.784Z,57.10
2019-02-28T05:19:02.365Z,57.60
2019-02-28T05:21:31.219Z,57.80
2019-02-28T05:24:00.347Z,57.40
2019-02-28T05:26:29.250Z,56.90
2019-02-28T05:28:58.979Z,59.70
2019-02-28T05:31:29.327Z,61.40
2019-02-28T05:33:58.221Z,62.40
2019-02-28T05:36:27.117Z,60.20
2019-02-28T05:38:56.693Z,60.30
2019-02-28T05:41:26.670Z,62.80
2019-02-28T05:43:56.912Z,64.20
2019-02-28T05:46:25.806Z,63.60
2019-02-28T05:48:57.051Z,62.90
2019-02-28T05:51:25.887Z,61.60
2019-02-28T05:53:54.785Z,60.40
2019-02-28T05:56:23.623Z,59.70
2019-02-28T05:58:53.233Z,58.60
2019-02-28T06:01:22.278Z,58.10
2019-02-28T06:03:51.093Z,57.90
2019-02-28T06:06:20.962Z,58.00
2019-02-28T06:08:51.142Z,63.60
2019-02-28T06:11:21.087Z,66.70
2019-02-28T06:13:52.828Z,69.30
2019-02-28T06:16:20.775Z,73.20
2019-02-28T06:18:52.523Z,75.60
2019-02-28T06:21:23.419Z,75.40
2019-02-28T06:23:55.695Z,76.30
2019-02-28T06:26:24.697Z,75.00
2019-02-28T06:28:53.574Z,75.30
2019-02-28T06:31:22.501Z,76.80
2019-02-28T06:33:54.632Z,78.10
2019-02-28T06:36:25.719Z,79.90
2019-02-28T06:38:54.618Z,79.60
2019-02-28T06:41:25.230Z,78.60
2019-02-28T06:43:54.153Z,79.50
2019-02-28T06:46:22.999Z,81.00
2019-02-28T06:48:53.650Z,82.90
2019-02-28T06:51:22.522Z,84.00
2019-02-28T06:53:52.318Z,84.90
2019-02-28T06:56:23.240Z,85.40
2019-02-28T06:58:53.913Z,83.50
2019-02-28T07:01:24.655Z,82.40
2019-02-28T07:03:55.528Z,82.80
2019-02-28T07:06:25.122Z,83.50
2019-02-28T07:08:54.786Z,81.00
2019-02-28T07:11:23.616Z,80.20
2019-02-28T07:13:52.458Z,81.00
2019-02-28T07:16:21.196Z,82.60
2019-02-28T07:18:52.843Z,83.00
2019-02-28T07:21:21.455Z,81.70
2019-02-28T07:26:23.174Z,79.90
2019-02-28T07:28:51.965Z,80.60
2019-02-28T07:31:21.660Z,82.50
2019-02-28T07:33:52.589Z,83.30
2019-02-28T07:36:24.346Z,82.70
2019-02-28T07:38:53.770Z,83.80
2019-02-28T07:41:26.357Z,83.30
2019-02-28T07:43:53.832Z,84.10
2019-02-28T07:46:24.743Z,84.00
2019-02-28T07:48:53.596Z,84.70
2019-02-28T07:51:26.182Z,85.30
2019-02-28T07:53:54.301Z,84.60
2019-02-28T07:56:23.916Z,85.00
2019-02-28T07:58:53.838Z,85.10
2019-02-28T08:01:24.545Z,85.50
2019-02-28T08:03:55.920Z,86.60
2019-02-28T08:06:27.311Z,86.60
2019-02-28T08:08:56.144Z,83.50
2019-02-28T08:11:25.009Z,80.50
2019-02-28T08:13:55.526Z,78.50
2019-02-28T08:16:27.421Z,76.00
2019-02-28T08:18:56.677Z,75.80
2019-02-28T08:21:25.616Z,72.70
2019-02-28T08:23:55.291Z,74.40
2019-02-28T08:26:24.687Z,76.50
2019-02-28T08:28:56.563Z,79.30
2019-02-28T08:36:48.827Z,80.40
2019-02-28T08:39:18.847Z,81.00
2019-02-28T08:41:50.281Z,81.50
2019-02-28T08:44:25.919Z,80.20
2019-02-28T08:46:57.461Z,79.80
2019-02-28T08:49:29.979Z,83.10
2019-02-28T08:51:58.885Z,82.90
2019-02-28T08:54:29.196Z,84.10
2019-02-28T08:56:58.062Z,83.60
2019-02-28T08:59:27.508Z,84.80
2019-02-28T09:01:56.427Z,86.00
2019-02-28T09:12:34.124Z,85.80
2019-02-28T09:15:07.894Z,85.90
2019-02-28T09:17:39.291Z,84.30
2019-02-28T09:20:16.516Z,82.30
2019-02-28T09:22:48.140Z,83.10
2019-02-28T09:25:22.879Z,82.10
2019-02-28T09:27:53.752Z,82.00
2019-02-28T09:30:42.639Z,83.40
2019-02-28T09:33:12.184Z,82.30
2019-02-28T09:53:55.529Z,79.80
2019-02-28T09:56:25.446Z,79.20
2019-02-28T09:58:56.335Z,78.80
2019-02-28T10:01:28.551Z,78.30
2019-02-28T10:03:58.761Z,79.00
2019-02-28T10:06:29.469Z,77.80
2019-02-28T10:08:58.728Z,76.60
2019-02-28T10:11:31.224Z,76.70
2019-02-28T10:14:00.024Z,74.30
2019-02-28T10:16:29.734Z,74.50
2019-02-28T10:19:01.386Z,77.10
2019-02-28T10:21:36.004Z,76.20
2019-02-28T10:24:09.206Z,74.30
2019-02-28T10:26:38.574Z,76.50
2019-02-28T10:29:13.737Z,78.00
2019-02-28T10:40:31.055Z,73.80
2019-02-28T10:43:02.273Z,73.80
2019-02-28T10:48:23.984Z,78.40
2019-02-28T10:50:53.730Z,77.50
2019-02-28T10:53:23.635Z,78.50
2019-02-28T10:55:54.445Z,75.60
2019-02-28T10:58:26.291Z,74.50
2019-02-28T11:00:55.301Z,73.90
2019-02-28T11:03:31.735Z,72.80
2019-02-28T11:06:01.206Z,73.30
2019-02-28T11:08:31.934Z,71.80
2019-02-28T11:11:02.696Z,72.60
2019-02-28T11:13:32.183Z,75.50
2019-02-28T11:16:01.865Z,75.40
2019-02-28T11:18:30.966Z,75.30
2019-02-28T11:21:00.625Z,76.20
2019-02-28T11:23:32.690Z,76.40
2019-02-28T11:26:02.876Z,75.60
2019-02-28T11:28:32.728Z,76.10
2019-02-28T11:31:03.573Z,74.60
2019-02-28T11:33:33.491Z,76.20
2019-02-28T11:36:10.985Z,75.40
2019-02-28T11:44:48.527Z,74.50
2019-02-28T11:47:18.079Z,76.30
2019-02-28T11:52:38.883Z,76.20
2019-02-28T11:58:03.331Z,71.50
2019-02-28T12:00:37.958Z,70.40
2019-02-28T12:03:11.687Z,71.40
2019-02-28T12:05:42.418Z,75.20
2019-02-28T12:08:13.436Z,75.20
2019-02-28T12:10:43.246Z,78.20
2019-02-28T12:13:16.562Z,81.20
2019-02-28T12:15:47.200Z,81.60
2019-02-28T12:18:17.938Z,81.60
2019-02-28T12:20:49.846Z,80.60
2019-02-28T12:23:22.985Z,79.70
2019-02-28T12:25:53.422Z,81.20
2019-02-28T12:28:24.736Z,80.60
2019-02-28T12:30:57.229Z,77.50
2019-02-28T12:33:33.284Z,78.50
2019-02-28T12:36:14.439Z,79.70
2019-02-28T12:38:53.208Z,79.10
2019-02-28T12:41:28.370Z,79.80
2019-02-28T12:44:04.396Z,77.90
2019-02-28T12:49:27.738Z,81.20
2019-02-28T12:57:26.012Z,79.30
2019-02-28T12:59:57.742Z,79.00
2019-02-28T13:02:31.534Z,77.60
2019-02-28T13:05:03.248Z,80.40
2019-02-28T13:07:54.201Z,78.50
2019-02-28T13:10:34.696Z,80.20
2019-02-28T13:13:07.193Z,77.90
2019-02-28T13:15:36.272Z,75.60
2019-02-28T13:18:08.943Z,70.90
2019-02-28T13:20:40.027Z,69.80
2019-02-28T13:23:11.263Z,72.60
2019-02-28T13:25:41.084Z,72.20
2019-02-28T13:28:18.129Z,71.10
2019-02-28T13:30:50.324Z,71.10
2019-02-28T13:33:16.965Z,69.70
2019-02-28T13:35:47.313Z,71.80
2019-02-28T13:38:18.994Z,71.70
2019-02-28T13:40:47.874Z,72.90
2019-02-28T13:43:22.444Z,71.30
2019-02-28T13:45:55.674Z,70.10
2019-02-28T13:48:25.961Z,71.10
2019-02-28T13:50:53.012Z,70.40
2019-02-28T13:53:23.416Z,67.80
2019-02-28T13:55:56.842Z,67.50
2019-02-28T13:58:24.501Z,67.00
2019-02-28T14:00:53.745Z,68.80
2019-02-28T14:03:26.139Z,69.50
2019-02-28T14:05:57.479Z,68.80
2019-02-28T14:08:26.433Z,68.50
2019-02-28T14:10:55.628Z,67.90
2019-02-28T14:13:26.038Z,66.30
2019-02-28T14:15:57.054Z,68.50
2019-02-28T14:18:28.397Z,70.60
2019-02-28T14:21:05.638Z,72.70
2019-02-28T14:30:36.878Z,72.30
2019-02-28T14:44:40.312Z,71.40
2019-02-28T14:47:09.192Z,70.90
2019-02-28T14:49:38.663Z,70.20
2019-02-28T14:52:08.176Z,73.20
2019-02-28T14:54:37.056Z,73.20
2019-02-28T14:57:07.817Z,72.50
2019-02-28T14:59:38.278Z,74.50
2019-02-28T15:02:07.092Z,75.60
2019-02-28T15:04:39.832Z,74.30
2019-02-28T15:07:13.181Z,73.10
2019-02-28T15:09:42.951Z,72.10
2019-02-28T15:12:14.226Z,72.90
2019-02-28T15:14:43.958Z,72.40
2019-02-28T15:17:15.839Z,73.60
2019-02-28T15:19:45.635Z,74.10
2019-02-28T15:22:17.607Z,74.00
2019-02-28T15:24:45.107Z,73.80
2019-02-28T15:27:14.040Z,73.70
2019-02-28T15:29:43.784Z,74.30
2019-02-28T15:32:17.227Z,74.80
2019-02-28T15:34:45.611Z,73.70
2019-02-28T15:37:18.572Z,74.10
2019-02-28T15:39:49.830Z,76.30
2019-02-28T15:42:19.969Z,74.70
2019-02-28T15:44:48.621Z,75.30
2019-02-28T15:47:19.498Z,78.30
2019-02-28T15:49:50.682Z,79.20
2019-02-28T15:52:19.899Z,77.70
2019-02-28T15:54:53.167Z,77.30
2019-02-28T15:57:23.403Z,74.10
2019-02-28T15:59:55.896Z,73.00
2019-02-28T16:02:24.747Z,72.80
2019-02-28T16:04:54.043Z,73.90
2019-02-28T16:07:24.936Z,74.00
2019-02-28T16:09:54.175Z,75.90
2019-02-28T16:12:27.231Z,75.00
2019-02-28T16:14:58.589Z,76.40
2019-02-28T16:17:28.910Z,73.80
2019-02-28T16:19:58.938Z,72.50
2019-02-28T16:22:27.992Z,73.90
2019-02-28T16:24:56.981Z,73.30
2019-02-28T16:27:26.329Z,71.50
2019-02-28T16:29:56.703Z,71.50
2019-02-28T16:32:25.672Z,71.20
2019-02-28T16:34:54.431Z,71.60
2019-02-28T16:37:23.893Z,71.80
2019-02-28T16:39:54.033Z,72.60
2019-02-28T16:42:22.922Z,72.20
2019-02-28T16:44:56.393Z,73.30
2019-02-28T16:47:25.300Z,74.90
2019-02-28T16:49:57.756Z,76.40
2019-02-28T16:52:27.619Z,76.60
2019-02-28T16:54:57.992Z,74.80
2019-02-28T16:57:28.867Z,75.60
2019-02-28T16:59:59.111Z,75.90
2019-02-28T17:02:29.302Z,75.30
2019-02-28T17:04:59.711Z,74.80
2019-02-28T17:07:28.652Z,75.00
2019-02-28T17:10:01.614Z,75.90
2019-02-28T17:12:32.071Z,75.70
2019-02-28T17:15:02.518Z,75.30
2019-02-28T17:17:39.411Z,73.40
2019-02-28T17:20:09.236Z,74.50
2019-02-28T17:22:39.708Z,72.80
2019-02-28T17:25:10.684Z,72.60
2019-02-28T17:27:45.150Z,73.30
2019-02-28T17:30:28.675Z,74.70
2019-02-28T17:33:05.703Z,74.50
2019-02-28T17:35:34.650Z,74.30
2019-02-28T17:38:05.652Z,75.00
2019-02-28T17:40:36.020Z,76.20
2019-02-28T17:43:04.908Z,76.30
2019-02-28T17:45:33.924Z,77.20
2019-02-28T17:48:34.366Z,74.30
2019-02-28T17:51:14.996Z,71.90
2019-02-28T17:53:48.242Z,71.00
2019-02-28T17:56:45.343Z,69.20
2019-02-28T17:59:32.216Z,67.90
2019-02-28T18:02:05.137Z,69.90
2019-02-28T18:04:55.990Z,72.40
2019-02-28T18:07:46.260Z,72.10
2019-02-28T18:10:33.129Z,69.70
2019-02-28T18:13:10.927Z,72.50
2019-02-28T18:15:49.476Z,74.20
2019-02-28T18:18:44.608Z,73.50
2019-02-28T18:21:23.106Z,74.10
2019-02-28T18:24:13.591Z,73.30
2019-02-28T18:27:14.982Z,71.00
2019-02-28T18:30:13.511Z,73.00
2019-02-28T18:32:42.337Z,74.70
2019-02-28T18:35:12.582Z,75.10
2019-02-28T18:37:42.331Z,76.50
2019-02-28T18:40:11.365Z,76.00
2019-02-28T18:42:40.214Z,75.80
2019-02-28T18:45:11.101Z,74.10
2019-02-28T18:47:40.786Z,72.60
2019-02-28T18:50:10.343Z,71.20
2019-02-28T18:52:39.221Z,71.90
2019-02-28T18:55:08.644Z,71.80
2019-02-28T18:57:37.865Z,70.20
2019-02-28T19:00:10.773Z,71.80
2019-02-28T19:02:39.694Z,71.50
2019-02-28T19:05:08.585Z,71.50
2019-02-28T19:07:39.775Z,72.60
2019-02-28T19:10:10.273Z,71.30
2019-02-28T19:12:40.590Z,72.50
2019-02-28T19:15:12.468Z,71.80
2019-02-28T19:17:43.514Z,70.70
2019-02-28T19:20:14.351Z,71.90
2019-02-28T19:22:43.639Z,69.20
2019-02-28T19:25:12.994Z,68.50
2019-02-28T19:27:43.711Z,69.10
2019-02-28T19:30:14.869Z,69.10
2019-02-28T19:32:43.685Z,70.20
2019-02-28T19:35:12.814Z,70.90
2019-02-28T19:37:41.645Z,71.90
2019-02-28T19:40:11.974Z,71.80
2019-02-28T19:42:40.900Z,70.50
2019-02-28T19:45:15.431Z,69.80
2019-02-28T19:47:47.383Z,71.80
2019-02-28T19:50:15.860Z,74.50
2019-02-28T19:52:48.540Z,73.60
2019-02-28T19:55:19.263Z,76.10
2019-02-28T19:57:50.132Z,78.20
2019-02-28T20:00:20.120Z,78.30
2019-02-28T20:02:48.985Z,77.30
2019-02-28T20:05:19.429Z,76.60
2019-02-28T20:07:50.112Z,75.40
2019-02-28T20:10:20.116Z,73.60
2019-02-28T20:12:50.216Z,76.10
2019-02-28T20:15:22.664Z,75.80
2019-02-28T20:17:53.153Z,77.20
2019-02-28T20:20:27.640Z,76.20
2019-02-28T20:22:57.269Z,75.00
2019-02-28T20:25:26.511Z,75.90
2019-02-28T20:27:56.290Z,74.80
2019-02-28T20:30:26.903Z,78.60
2019-02-28T20:32:58.022Z,79.80
2019-02-28T20:35:27.101Z,81.90
2019-02-28T20:37:56.366Z,82.10
2019-02-28T20:40:35.715Z,80.90
2019-02-28T20:43:08.498Z,80.20
2019-02-28T20:45:37.673Z,79.60
2019-02-28T20:48:06.659Z,79.80
2019-02-28T20:50:43.883Z,82.50
2019-02-28T20:53:14.995Z,85.10
2019-02-28T20:55:45.438Z,84.10
2019-02-28T20:58:16.063Z,85.50
2019-02-28T21:00:46.720Z,84.70
2019-02-28T21:03:18.755Z,82.10
2019-02-28T21:05:47.590Z,78.80
2019-02-28T21:08:16.484Z,81.40
2019-02-28T21:10:47.225Z,82.40
2019-02-28T21:13:16.591Z,81.80
2019-02-28T21:15:46.347Z,81.40
2019-02-28T21:18:16.062Z,82.40
2019-02-28T21:20:45.227Z,83.70
2019-02-28T21:23:16.243Z,84.40
2019-02-28T21:25:45.065Z,83.50
2019-02-28T21:28:26.794Z,83.30
2019-02-28T21:30:58.057Z,82.70
2019-02-28T21:33:34.581Z,84.40
2019-02-28T21:36:03.844Z,84.50
2019-02-28T21:38:32.748Z,84.20
2019-02-28T21:41:04.660Z,84.00
2019-02-28T21:43:34.163Z,83.10
2019-02-28T21:46:04.133Z,85.90
2019-02-28T21:48:32.928Z,87.20
2019-02-28T21:51:02.852Z,87.00
2019-02-28T21:53:31.958Z,87.10
2019-02-28T21:56:00.962Z,86.40
2019-02-28T21:58:31.237Z,85.80
2019-02-28T22:01:00.216Z,86.20
2019-02-28T22:03:29.647Z,86.00
2019-02-28T22:05:59.347Z,83.90
2019-02-28T22:08:28.554Z,83.10
2019-02-28T22:10:58.695Z,81.90
2019-02-28T22:13:28.408Z,81.40
2019-02-28T22:15:57.275Z,81.80
2019-02-28T22:18:26.192Z,82.20
2019-02-28T22:20:58.452Z,83.70
2019-02-28T22:23:27.694Z,85.20
2019-02-28T22:25:57.935Z,85.00
2019-02-28T22:28:26.771Z,84.70
2019-02-28T22:31:09.246Z,85.10
2019-02-28T22:33:42.404Z,85.80
2019-02-28T22:36:13.152Z,86.20
2019-02-28T22:38:42.129Z,87.40
2019-02-28T22:41:10.998Z,86.70
2019-02-28T22:43:39.944Z,85.20
2019-02-28T22:46:08.895Z,86.10
2019-02-28T22:48:38.565Z,86.00
2019-02-28T22:51:07.916Z,84.90
2019-02-28T22:53:36.810Z,85.60
2019-02-28T22:56:06.655Z,84.60
2019-02-28T22:58:37.119Z,86.60
2019-02-28T23:01:11.892Z,87.00
2019-02-28T23:03:45.152Z,86.80
2019-02-28T23:06:14.910Z,87.00
2019-02-28T23:08:43.822Z,86.70
2019-02-28T23:11:14.028Z,87.00
2019-02-28T23:13:43.051Z,88.40
2019-02-28T23:16:12.014Z,88.10
2019-02-28T23:18:41.353Z,87.60
2019-02-28T23:21:11.036Z,86.80
2019-02-28T23:23:41.234Z,87.50
2019-02-28T23:26:12.656Z,88.20
2019-02-28T23:28:48.541Z,88.50
2019-02-28T23:31:36.752Z,88.40
2019-02-28T23:34:21.038Z,87.90
2019-02-28T23:36:50.437Z,89.40
2019-02-28T23:42:09.767Z,87.90
2019-02-28T23:44:39.032Z,87.80
2019-02-28T23:47:08.304Z,88.30
2019-02-28T23:49:37.134Z,87.50
2019-02-28T23:52:06.106Z,87.50
2019-02-28T23:54:35.021Z,86.40
2019-02-28T23:57:03.933Z,86.10
2019-02-28T23:59:33.144Z,84.70
